Time;durP1;ratioP1;P1;durP2;ratioP2;P2;SDS_P1;SDS_P2;PMS_P1;PMS_P2;Temp;Humidity;BMP_temperature;BMP_pressure;BME280_temperature;BME280_humidity;BME280_pressure;Samples;Min_cycle;Max_cycle;Signal;HPM_P1;HPM_P2
2023/03/16 00:00:54;;;;;;;;;;;;;;;0.48;nan;101018.97;5009767;28;19984;-87
2023/03/16 00:03:20;;;;;;;;;;;;;;;0.48;nan;101012.88;4988373;28;20016;-87
2023/03/16 00:06:19;;;;;;;;;;;;;;;0.45;nan;101019.09;4999362;28;20256;-87
2023/03/16 00:08:45;;;;;;;;;;;;;;;0.37;nan;101014.25;5006721;28;19973;-87
2023/03/16 00:11:11;;;;;;;;;;;;;;;0.34;nan;101016.19;5000522;28;20786;-87
2023/03/16 00:13:41;;;;;;;;;;;;;;;0.34;nan;101013.59;4996975;28;19936;-87
2023/03/16 00:16:06;;;;;;;;;;;;;;;0.33;nan;101020.53;5002914;28;20344;-87
2023/03/16 00:18:37;;;;;;;;;;;;;;;0.28;nan;101019.06;4995185;28;19922;-87
2023/03/16 00:21:04;;;;;;;;;;;;;;;0.32;nan;101018.00;5002590;28;19928;-87
2023/03/16 00:23:34;;;;;;;;;;;;;;;0.32;nan;101012.81;4995353;28;19922;-87
2023/03/16 00:26:01;;;;;;;;;;;;;;;0.36;nan;101016.97;5002673;28;19927;-87
2023/03/16 00:28:27;;;;;;;;;;;;;;;0.50;nan;101016.25;5000464;28;20380;-87
2023/03/16 00:30:57;;;;;;;;;;;;;;;0.52;nan;101020.47;5000328;28;19922;-87
2023/03/16 00:33:22;;;;;;;;;;;;;;;0.54;nan;101021.25;5016101;28;19917;-87
2023/03/16 00:35:48;;;;;;;;;;;;;;;0.54;nan;101018.66;4994998;28;19926;-87
2023/03/16 00:38:13;;;;;;;;;;;;;;;0.58;nan;101012.38;4998839;28;19924;-87
2023/03/16 00:40:39;;;;;;;;;;;;;;;0.55;nan;101009.06;5000410;28;19918;-87
2023/03/16 00:43:04;;;;;;;;;;;;;;;0.61;nan;101008.78;5001043;28;19918;-88
2023/03/16 00:45:31;;;;;;;;;;;;;;;0.70;nan;100994.47;5015053;28;19924;-86
2023/03/16 00:47:56;;;;;;;;;;;;;;;0.75;nan;100997.69;5002780;28;20295;-87
2023/03/16 00:50:21;;;;;;;;;;;;;;;0.81;nan;100997.34;4995982;28;19918;-87
2023/03/16 00:52:47;;;;;;;;;;;;;;;0.83;nan;100987.72;4995225;28;19918;-87
2023/03/16 00:55:12;;;;;;;;;;;;;;;0.84;nan;100992.03;4996344;28;19984;-87
2023/03/16 00:57:38;;;;;;;;;;;;;;;0.83;nan;100988.59;4991852;28;19918;-86
2023/03/16 01:00:11;;;;;;;;;;;;;;;0.82;nan;100991.25;4997853;28;19929;-88
2023/03/16 01:02:37;;;;;;;;;;;;;;;0.83;nan;100990.31;4999150;28;19925;-86
2023/03/16 01:05:04;;;;;;;;;;;;;;;0.81;nan;100992.16;4991614;28;19921;-87
2023/03/16 01:07:30;;;;;;;;;;;;;;;0.75;nan;100989.88;4991648;28;19949;-87
2023/03/16 01:09:55;;;;;;;;;;;;;;;0.62;nan;100987.03;4993386;28;19956;-87
2023/03/16 01:12:20;;;;;;;;;;;;;;;0.46;nan;100986.97;4988345;28;19922;-87
2023/03/16 01:14:45;;;;;;;;;;;;;;;0.36;nan;100985.75;4991641;28;19921;-87
2023/03/16 01:17:12;;;;;;;;;;;;;;;0.25;nan;100982.81;4995780;28;19997;-87
2023/03/16 01:19:38;;;;;;;;;;;;;;;0.16;nan;100976.28;4997977;28;19926;-87
2023/03/16 01:22:04;;;;;;;;;;;;;;;0.09;nan;100973.13;4997849;28;20015;-87
2023/03/16 01:24:29;;;;;;;;;;;;;;;0.01;nan;100967.47;4978805;28;19944;-87
2023/03/16 01:26:55;;;;;;;;;;;;;;;-0.04;nan;100977.25;4992857;28;20028;-87
2023/03/16 01:29:20;;;;;;;;;;;;;;;-0.09;nan;100979.22;4992314;28;19917;-88
2023/03/16 01:31:46;;;;;;;;;;;;;;;-0.10;nan;100973.16;4989832;28;19917;-88
2023/03/16 01:34:15;;;;;;;;;;;;;;;-0.15;nan;100974.31;4998246;28;19926;-87
2023/03/16 01:36:41;;;;;;;;;;;;;;;-0.20;nan;100984.09;5001604;28;19936;-87
2023/03/16 01:39:06;;;;;;;;;;;;;;;-0.28;nan;100985.28;4999690;28;19921;-88
2023/03/16 01:41:31;;;;;;;;;;;;;;;-0.29;nan;100980.16;5010678;28;19928;-88
2023/03/16 01:43:57;;;;;;;;;;;;;;;-0.20;nan;100981.47;5006272;28;20073;-88
2023/03/16 01:46:24;;;;;;;;;;;;;;;-0.03;nan;100978.94;4989509;28;20016;-88
2023/03/16 01:49:04;;;;;;;;;;;;;;;0.10;nan;100982.63;5005480;28;19921;-88
2023/03/16 01:51:40;;;;;;;;;;;;;;;0.16;nan;100977.13;4995074;28;19918;-87
2023/03/16 01:54:13;;;;;;;;;;;;;;;0.21;nan;100961.31;5002597;28;19926;-87
2023/03/16 01:56:50;;;;;;;;;;;;;;;0.30;nan;100957.41;5006863;28;19928;-88
2023/03/16 01:59:17;;;;;;;;;;;;;;;0.34;nan;100956.34;5002505;28;19921;-89
2023/03/16 02:01:43;;;;;;;;;;;;;;;0.34;nan;100948.56;5002990;28;20132;-89
2023/03/16 02:04:17;;;;;;;;;;;;;;;0.38;nan;100955.28;5002872;28;19917;-88
2023/03/16 02:06:43;;;;;;;;;;;;;;;0.32;nan;100938.22;5006197;28;19918;-90
2023/03/16 02:09:09;;;;;;;;;;;;;;;0.22;nan;100944.78;5004940;28;20134;-88
2023/03/16 02:11:35;;;;;;;;;;;;;;;0.13;nan;100937.44;5016734;28;19921;-87
2023/03/16 02:14:05;;;;;;;;;;;;;;;0.10;nan;100937.59;5014941;28;19918;-87
2023/03/16 02:16:30;;;;;;;;;;;;;;;0.07;nan;100949.00;5012360;28;19925;-87
2023/03/16 02:18:55;;;;;;;;;;;;;;;0.08;nan;100939.44;5012333;28;19921;-87
2023/03/16 02:21:26;;;;;;;;;;;;;;;0.09;nan;100936.72;4999445;28;19918;-88
2023/03/16 02:23:52;;;;;;;;;;;;;;;0.18;nan;100933.69;4989435;28;20371;-88
2023/03/16 02:26:23;;;;;;;;;;;;;;;0.25;nan;100934.22;4980113;28;19924;-87
2023/03/16 02:29:07;;;;;;;;;;;;;;;0.40;nan;100932.63;5004319;28;19918;-87
2023/03/16 02:31:33;;;;;;;;;;;;;;;0.51;nan;100924.28;4989880;28;19918;-87
2023/03/16 02:33:58;;;;;;;;;;;;;;;0.54;nan;100924.97;4970911;28;19925;-87
2023/03/16 02:36:24;;;;;;;;;;;;;;;0.56;nan;100920.53;4978963;28;19921;-87
2023/03/16 02:38:49;;;;;;;;;;;;;;;0.55;nan;100924.06;4990161;28;19965;-88
2023/03/16 02:41:16;;;;;;;;;;;;;;;0.53;nan;100920.69;4993261;28;20586;-87
2023/03/16 02:43:44;;;;;;;;;;;;;;;0.51;nan;100921.69;4993739;28;19922;-87
2023/03/16 02:46:10;;;;;;;;;;;;;;;0.51;nan;100906.91;4992829;28;19976;-87
2023/03/16 02:48:53;;;;;;;;;;;;;;;0.51;nan;100912.13;4985436;28;20380;-87
2023/03/16 02:51:19;;;;;;;;;;;;;;;0.53;nan;100917.25;4984635;28;19917;-87
2023/03/16 02:53:44;;;;;;;;;;;;;;;0.55;nan;100912.78;5005895;28;20311;-87
2023/03/16 02:56:09;;;;;;;;;;;;;;;0.49;nan;100911.34;4981476;28;19933;-87
2023/03/16 02:58:35;;;;;;;;;;;;;;;0.43;nan;100914.28;4989613;28;20012;-87
2023/03/16 03:01:00;;;;;;;;;;;;;;;0.35;nan;100911.22;4989945;28;20300;-87
2023/03/16 03:03:29;;;;;;;;;;;;;;;0.26;nan;100902.09;4994060;28;19924;-87
2023/03/16 03:05:54;;;;;;;;;;;;;;;0.25;nan;100902.19;4995914;28;20430;-87
2023/03/16 03:08:21;;;;;;;;;;;;;;;0.33;nan;100895.66;5009465;28;19917;-87
2023/03/16 03:10:46;;;;;;;;;;;;;;;0.34;nan;100894.75;5006764;28;19968;-87
2023/03/16 03:13:12;;;;;;;;;;;;;;;0.34;nan;100886.97;4990574;28;19918;-87
2023/03/16 03:15:37;;;;;;;;;;;;;;;0.34;nan;100884.38;4989429;28;19933;-87
2023/03/16 03:18:03;;;;;;;;;;;;;;;0.37;nan;100872.97;4972747;28;19922;-88
2023/03/16 03:20:28;;;;;;;;;;;;;;;0.33;nan;100876.63;5002116;28;20040;-87
2023/03/16 03:22:53;;;;;;;;;;;;;;;0.29;nan;100888.13;4993316;28;20410;-87
2023/03/16 03:25:19;;;;;;;;;;;;;;;0.22;nan;100884.97;4984778;28;19918;-87
2023/03/16 03:27:45;;;;;;;;;;;;;;;0.19;nan;100877.31;4984610;28;19941;-86
2023/03/16 03:30:12;;;;;;;;;;;;;;;0.14;nan;100881.91;4989428;28;20325;-87
2023/03/16 03:32:37;;;;;;;;;;;;;;;0.14;nan;100876.69;4995976;28;19921;-88
2023/03/16 03:35:03;;;;;;;;;;;;;;;0.08;nan;100882.22;5008531;28;19921;-88
2023/03/16 03:37:28;;;;;;;;;;;;;;;-0.02;nan;100877.47;4992160;28;19944;-88
2023/03/16 03:39:53;;;;;;;;;;;;;;;-0.10;nan;100876.16;4993304;28;19933;-87
2023/03/16 03:42:18;;;;;;;;;;;;;;;-0.18;nan;100867.91;4996850;28;19918;-87
2023/03/16 03:44:44;;;;;;;;;;;;;;;-0.20;nan;100880.13;4997180;28;19961;-88
2023/03/16 03:47:09;;;;;;;;;;;;;;;-0.23;nan;100875.94;4992555;28;19918;-87
2023/03/16 03:49:34;;;;;;;;;;;;;;;-0.20;nan;100873.16;5002353;28;19987;-88
2023/03/16 03:52:03;;;;;;;;;;;;;;;-0.21;nan;100866.31;5013789;28;19918;-88
2023/03/16 03:54:30;;;;;;;;;;;;;;;-0.26;nan;100860.50;4992742;28;20376;-88
2023/03/16 03:56:55;;;;;;;;;;;;;;;-0.28;nan;100864.91;4991794;28;19926;-88
2023/03/16 03:59:21;;;;;;;;;;;;;;;-0.32;nan;100869.41;4980161;28;20399;-87
2023/03/16 04:01:47;;;;;;;;;;;;;;;-0.30;nan;100875.38;4988332;28;19919;-88
2023/03/16 04:04:13;;;;;;;;;;;;;;;-0.37;nan;100865.34;4986776;28;19918;-87
2023/03/16 04:06:38;;;;;;;;;;;;;;;-0.38;nan;100863.66;4972404;28;20423;-88
2023/03/16 04:09:04;;;;;;;;;;;;;;;-0.44;nan;100863.03;4987471;28;19922;-87
2023/03/16 04:11:29;;;;;;;;;;;;;;;-0.49;nan;100862.41;4987638;28;19925;-88
2023/03/16 04:13:55;;;;;;;;;;;;;;;-0.53;nan;100867.81;4988237;28;20000;-88
2023/03/16 04:16:20;;;;;;;;;;;;;;;-0.52;nan;100867.75;4996831;28;19926;-87
2023/03/16 04:18:46;;;;;;;;;;;;;;;-0.44;nan;100872.59;4986693;28;19957;-88
2023/03/16 04:21:15;;;;;;;;;;;;;;;-0.38;nan;100874.03;4992609;28;20700;-88
2023/03/16 04:23:41;;;;;;;;;;;;;;;-0.39;nan;100873.22;4996080;28;19929;-88
2023/03/16 04:26:06;;;;;;;;;;;;;;;-0.39;nan;100874.97;4996156;28;20318;-88
2023/03/16 04:28:32;;;;;;;;;;;;;;;-0.39;nan;100873.22;4995004;28;19922;-87
2023/03/16 04:31:05;;;;;;;;;;;;;;;-0.35;nan;100877.34;4994718;28;20012;-88
2023/03/16 04:33:31;;;;;;;;;;;;;;;-0.36;nan;100880.84;4988837;28;19932;-88
2023/03/16 04:35:56;;;;;;;;;;;;;;;-0.35;nan;100882.53;4990353;28;19922;-87
2023/03/16 04:38:21;;;;;;;;;;;;;;;-0.35;nan;100879.94;4989442;28;20564;-87
2023/03/16 04:40:47;;;;;;;;;;;;;;;-0.34;nan;100875.59;4996980;28;20016;-87
2023/03/16 04:43:12;;;;;;;;;;;;;;;-0.38;nan;100879.25;4996104;28;19922;-87
2023/03/16 04:45:37;;;;;;;;;;;;;;;-0.40;nan;100868.94;5005764;28;19924;-87
2023/03/16 04:48:03;;;;;;;;;;;;;;;-0.39;nan;100882.75;5001242;28;19921;-87
2023/03/16 04:50:28;;;;;;;;;;;;;;;-0.36;nan;100877.41;5001525;28;19961;-88
2023/03/16 04:52:53;;;;;;;;;;;;;;;-0.26;nan;100878.69;4994770;28;20011;-87
2023/03/16 04:55:19;;;;;;;;;;;;;;;-0.17;nan;100874.78;4993366;28;20307;-88
2023/03/16 04:57:45;;;;;;;;;;;;;;;-0.02;nan;100874.03;4994843;28;20439;-87
2023/03/16 05:00:17;;;;;;;;;;;;;;;0.22;nan;100869.38;4993754;28;19917;-88
2023/03/16 05:02:42;;;;;;;;;;;;;;;0.36;nan;100877.31;4992467;28;19931;-87
2023/03/16 05:05:07;;;;;;;;;;;;;;;0.41;nan;100866.69;4992749;28;19931;-88
2023/03/16 05:07:33;;;;;;;;;;;;;;;0.36;nan;100874.72;5008352;28;19988;-88
2023/03/16 05:09:58;;;;;;;;;;;;;;;0.29;nan;100873.34;4995793;28;19927;-88
2023/03/16 05:12:23;;;;;;;;;;;;;;;0.22;nan;100865.94;4995055;28;19925;-88
2023/03/16 05:14:48;;;;;;;;;;;;;;;0.14;nan;100863.69;5013654;28;19929;-88
2023/03/16 05:17:14;;;;;;;;;;;;;;;0.05;nan;100864.16;4994022;28;20288;-87
2023/03/16 05:19:39;;;;;;;;;;;;;;;0.00;nan;100856.63;4994020;28;19967;-88
2023/03/16 05:22:05;;;;;;;;;;;;;;;-0.03;nan;100862.78;4994266;28;20025;-88
2023/03/16 05:24:30;;;;;;;;;;;;;;;-0.06;nan;100865.53;4992648;28;20009;-87
2023/03/16 05:26:56;;;;;;;;;;;;;;;-0.09;nan;100860.50;4994048;28;19929;-87
2023/03/16 05:29:21;;;;;;;;;;;;;;;-0.13;nan;100861.56;4994583;28;19918;-87
2023/03/16 05:31:48;;;;;;;;;;;;;;;-0.17;nan;100866.97;4996008;28;19917;-87
2023/03/16 05:34:13;;;;;;;;;;;;;;;-0.21;nan;100858.50;5014190;28;19944;-87
2023/03/16 05:36:43;;;;;;;;;;;;;;;-0.23;nan;100862.94;5000502;28;19922;-87
2023/03/16 05:39:09;;;;;;;;;;;;;;;-0.27;nan;100858.78;4987696;28;20009;-87
2023/03/16 05:41:34;;;;;;;;;;;;;;;-0.31;nan;100868.50;4993068;28;19945;-87
2023/03/16 05:43:59;;;;;;;;;;;;;;;-0.28;nan;100863.16;5012942;28;19921;-87
2023/03/16 05:46:24;;;;;;;;;;;;;;;-0.23;nan;100850.78;5013952;28;19930;-87
2023/03/16 05:48:50;;;;;;;;;;;;;;;-0.12;nan;100846.78;5014404;28;19917;-88
2023/03/16 05:51:15;;;;;;;;;;;;;;;-0.01;nan;100840.16;5013792;28;19967;-88
2023/03/16 05:53:41;;;;;;;;;;;;;;;0.17;nan;100840.16;4996615;28;19925;-87
2023/03/16 05:56:06;;;;;;;;;;;;;;;0.38;nan;100838.22;5015885;28;19933;-87
2023/03/16 05:58:32;;;;;;;;;;;;;;;0.53;nan;100834.84;5002407;28;19928;-87
2023/03/16 06:01:01;;;;;;;;;;;;;;;0.59;nan;100831.88;5020338;28;19921;-87
2023/03/16 06:03:26;;;;;;;;;;;;;;;0.65;nan;100828.16;4989031;28;19918;-87
2023/03/16 06:05:52;;;;;;;;;;;;;;;0.78;nan;100825.72;4992962;28;20209;-88
2023/03/16 06:08:17;;;;;;;;;;;;;;;1.00;nan;100823.66;4993522;28;20009;-87
2023/03/16 06:10:45;;;;;;;;;;;;;;;1.25;nan;100817.09;4991653;28;19972;-87
2023/03/16 06:13:10;;;;;;;;;;;;;;;1.58;nan;100816.16;4984919;28;19918;-87
2023/03/16 06:15:35;;;;;;;;;;;;;;;1.98;nan;100824.25;4991475;28;19941;-87
2023/03/16 06:18:00;;;;;;;;;;;;;;;2.44;nan;100821.56;5008171;28;19917;-88
2023/03/16 06:20:26;;;;;;;;;;;;;;;2.78;nan;100822.13;5007028;28;20053;-88
2023/03/16 06:22:51;;;;;;;;;;;;;;;3.00;nan;100819.84;4997715;28;19917;-88
2023/03/16 06:25:17;;;;;;;;;;;;;;;3.30;nan;100816.25;4994931;28;19923;-88
2023/03/16 06:27:42;;;;;;;;;;;;;;;3.47;nan;100813.38;5007195;28;19932;-88
2023/03/16 06:30:11;;;;;;;;;;;;;;;3.75;nan;100824.66;5003426;28;19917;-87
2023/03/16 06:32:36;;;;;;;;;;;;;;;4.09;nan;100823.25;4992639;28;20016;-87
2023/03/16 06:35:02;;;;;;;;;;;;;;;4.18;nan;100825.28;5000753;28;19969;-87
2023/03/16 06:37:28;;;;;;;;;;;;;;;4.24;nan;100824.88;5006176;28;19949;-87
2023/03/16 06:39:53;;;;;;;;;;;;;;;4.36;nan;100820.56;4999217;28;19930;-86
2023/03/16 06:42:18;;;;;;;;;;;;;;;4.57;nan;100826.09;4992293;28;19975;-86
2023/03/16 06:44:44;;;;;;;;;;;;;;;4.77;nan;100835.22;5006596;28;19953;-86
2023/03/16 06:47:09;;;;;;;;;;;;;;;5.05;nan;100830.63;5001821;28;19922;-87
2023/03/16 06:49:34;;;;;;;;;;;;;;;5.27;nan;100835.22;4997375;28;20354;-87
2023/03/16 06:52:01;;;;;;;;;;;;;;;5.69;nan;100839.09;4994897;28;19957;-88
2023/03/16 06:54:26;;;;;;;;;;;;;;;5.80;nan;100827.84;4988183;28;21544;-87
2023/03/16 06:56:51;;;;;;;;;;;;;;;5.93;nan;100828.63;4982644;28;20522;-87
2023/03/16 06:59:16;;;;;;;;;;;;;;;6.20;nan;100832.78;4994972;28;19948;-87
2023/03/16 07:01:43;;;;;;;;;;;;;;;6.62;nan;100840.94;4989095;28;19952;-87
2023/03/16 07:04:08;;;;;;;;;;;;;;;6.83;nan;100838.44;4983795;28;19924;-88
2023/03/16 07:06:34;;;;;;;;;;;;;;;7.02;nan;100835.19;4990723;28;19921;-87
2023/03/16 07:09:00;;;;;;;;;;;;;;;7.04;nan;100841.19;4995590;28;19933;-87
2023/03/16 07:11:25;;;;;;;;;;;;;;;7.09;nan;100846.06;4981059;28;19929;-88
2023/03/16 07:13:50;;;;;;;;;;;;;;;6.95;nan;100842.72;4991587;28;19930;-88
2023/03/16 07:16:16;;;;;;;;;;;;;;;6.58;nan;100844.78;4988672;28;20065;-88
2023/03/16 07:18:43;;;;;;;;;;;;;;;6.34;nan;100843.06;4995714;28;19922;-88
2023/03/16 07:21:08;;;;;;;;;;;;;;;6.24;nan;100843.88;4980322;28;20016;-88
2023/03/16 07:23:33;;;;;;;;;;;;;;;6.05;nan;100841.78;4983446;28;20549;-88
2023/03/16 07:25:59;;;;;;;;;;;;;;;5.97;nan;100841.53;4990260;28;19980;-87
2023/03/16 07:28:25;;;;;;;;;;;;;;;5.88;nan;100840.38;4990536;28;19925;-87
2023/03/16 07:30:50;;;;;;;;;;;;;;;5.79;nan;100849.75;5009076;28;19917;-87
2023/03/16 07:33:16;;;;;;;;;;;;;;;5.76;nan;100834.25;4990649;28;19956;-87
2023/03/16 07:35:41;;;;;;;;;;;;;;;5.66;nan;100839.34;5015985;28;20138;-88
2023/03/16 07:38:10;;;;;;;;;;;;;;;5.59;nan;100842.53;5008053;28;19918;-88
2023/03/16 07:40:35;;;;;;;;;;;;;;;5.51;nan;100841.31;5017835;28;20291;-86
2023/03/16 07:43:00;;;;;;;;;;;;;;;5.54;nan;100848.13;5001965;28;19918;-88
2023/03/16 07:45:25;;;;;;;;;;;;;;;5.52;nan;100844.75;5016686;28;20016;-87
2023/03/16 07:47:51;;;;;;;;;;;;;;;5.61;nan;100848.50;5003387;28;19918;-88
2023/03/16 07:50:18;;;;;;;;;;;;;;;5.88;nan;100849.09;5009155;28;19917;-88
2023/03/16 07:52:45;;;;;;;;;;;;;;;6.36;nan;100854.28;5010444;28;20015;-87
2023/03/16 07:55:10;;;;;;;;;;;;;;;6.84;nan;100853.28;5015305;28;19944;-87
2023/03/16 07:57:35;;;;;;;;;;;;;;;7.33;nan;100844.09;5014208;28;19993;-87
2023/03/16 08:00:04;;;;;;;;;;;;;;;7.73;nan;100838.25;5001177;28;19918;-87
2023/03/16 08:02:29;;;;;;;;;;;;;;;8.20;nan;100848.44;5005592;28;19969;-87
2023/03/16 08:04:55;;;;;;;;;;;;;;;8.58;nan;100829.44;4997402;28;20299;-87
2023/03/16 08:07:20;;;;;;;;;;;;;;;9.00;nan;100844.31;5001688;28;19917;-87
2023/03/16 08:09:46;;;;;;;;;;;;;;;9.48;nan;100843.59;5007900;28;19964;-88
2023/03/16 08:12:11;;;;;;;;;;;;;;;9.59;nan;100829.44;5015449;28;20032;-89
2023/03/16 08:14:36;;;;;;;;;;;;;;;9.83;nan;100827.22;5003760;28;19945;-87
2023/03/16 08:17:03;;;;;;;;;;;;;;;9.93;nan;100821.91;5014766;28;19921;-88
2023/03/16 08:19:28;;;;;;;;;;;;;;;10.17;nan;100824.94;5010728;28;19968;-87
2023/03/16 08:21:53;;;;;;;;;;;;;;;10.58;nan;100828.22;5009603;28;20363;-86
2023/03/16 08:24:19;;;;;;;;;;;;;;;10.61;nan;100830.56;5011689;28;19941;-87
2023/03/16 08:26:44;;;;;;;;;;;;;;;10.87;nan;100831.72;5002553;28;19984;-86
2023/03/16 08:29:09;;;;;;;;;;;;;;;10.89;nan;100819.19;5022549;28;19929;-87
2023/03/16 08:31:35;;;;;;;;;;;;;;;11.30;nan;100830.22;5021685;28;19921;-88
2023/03/16 08:34:00;;;;;;;;;;;;;;;11.59;nan;100830.88;5000572;28;19925;-87
2023/03/16 08:36:27;;;;;;;;;;;;;;;11.86;nan;100827.31;5003819;28;19985;-87
2023/03/16 08:38:53;;;;;;;;;;;;;;;12.13;nan;100827.38;4996863;28;20430;-87
2023/03/16 08:41:19;;;;;;;;;;;;;;;12.59;nan;100830.69;5012938;28;19924;-89
2023/03/16 08:43:45;;;;;;;;;;;;;;;12.43;nan;100837.53;4993259;28;19921;-88
2023/03/16 08:46:12;;;;;;;;;;;;;;;13.07;nan;100834.53;4999955;28;19917;-87
2023/03/16 08:48:39;;;;;;;;;;;;;;;13.66;nan;100830.06;4992395;28;19925;-88
2023/03/16 08:51:08;;;;;;;;;;;;;;;13.92;nan;100824.59;4993158;28;19972;-88
2023/03/16 08:53:33;;;;;;;;;;;;;;;13.59;nan;100811.28;4986645;28;19918;-88
2023/03/16 08:56:09;;;;;;;;;;;;;;;13.43;nan;100810.44;4994983;28;19921;-88
2023/03/16 08:58:35;;;;;;;;;;;;;;;13.52;nan;100812.13;5006946;28;19971;-88
2023/03/16 09:01:01;;;;;;;;;;;;;;;13.66;nan;100803.50;5012865;28;19922;-88
2023/03/16 09:03:26;;;;;;;;;;;;;;;13.76;nan;100801.50;4999689;28;19995;-88
2023/03/16 09:05:51;;;;;;;;;;;;;;;13.00;nan;100805.16;4993333;28;19918;-88
2023/03/16 09:08:17;;;;;;;;;;;;;;;12.93;nan;100793.50;4994494;28;20319;-88
2023/03/16 09:10:42;;;;;;;;;;;;;;;12.85;nan;100799.63;4994572;28;20322;-88
2023/03/16 09:13:07;;;;;;;;;;;;;;;12.58;nan;100797.16;4994780;28;20011;-88
2023/03/16 09:15:32;;;;;;;;;;;;;;;12.24;nan;100803.28;4989670;28;19932;-88
2023/03/16 09:17:59;;;;;;;;;;;;;;;12.45;nan;100801.09;4992813;28;19948;-88
2023/03/16 09:20:26;;;;;;;;;;;;;;;12.95;nan;100800.31;4993110;28;20418;-88
2023/03/16 09:22:51;;;;;;;;;;;;;;;13.57;nan;100799.16;4992873;28;20403;-88
2023/03/16 09:25:16;;;;;;;;;;;;;;;13.98;nan;100804.47;4993026;28;19918;-87
2023/03/16 09:27:41;;;;;;;;;;;;;;;14.44;nan;100812.72;5008010;28;20376;-88
2023/03/16 09:30:07;;;;;;;;;;;;;;;14.43;nan;100811.06;5008742;28;20444;-91
2023/03/16 09:32:33;;;;;;;;;;;;;;;14.01;nan;100805.00;5009196;28;20376;-87
2023/03/16 09:34:58;;;;;;;;;;;;;;;14.52;nan;100811.88;5008136;28;19941;-87
2023/03/16 09:37:24;;;;;;;;;;;;;;;15.16;nan;100807.34;4992634;28;19918;-87
2023/03/16 09:39:50;;;;;;;;;;;;;;;15.07;nan;100803.88;5007427;28;19928;-87
2023/03/16 09:42:23;;;;;;;;;;;;;;;15.00;nan;100802.91;4992578;28;20008;-87
2023/03/16 09:45:01;;;;;;;;;;;;;;;15.21;nan;100806.81;5008211;28;19918;-89
2023/03/16 09:47:31;;;;;;;;;;;;;;;15.61;nan;100792.38;5007189;28;20311;-89
2023/03/16 09:49:58;;;;;;;;;;;;;;;15.43;nan;100787.34;5006900;28;19953;-86
2023/03/16 09:52:42;;;;;;;;;;;;;;;14.69;nan;100789.56;4991281;28;19917;-87
2023/03/16 09:55:27;;;;;;;;;;;;;;;14.44;nan;100786.13;4990947;28;19940;-88
2023/03/16 09:57:52;;;;;;;;;;;;;;;14.63;nan;100785.78;4991815;28;20290;-87
2023/03/16 10:00:18;;;;;;;;;;;;;;;14.98;nan;100788.13;5006475;28;19918;-89
2023/03/16 10:03:02;;;;;;;;;;;;;;;14.96;nan;100774.97;5009501;28;19960;-87
2023/03/16 10:05:28;;;;;;;;;;;;;;;14.99;nan;100776.44;5015408;28;19941;-86
2023/03/16 10:07:56;;;;;;;;;;;;;;;15.38;nan;100767.56;5013123;28;19922;-86
2023/03/16 10:10:37;;;;;;;;;;;;;;;15.22;nan;100779.16;5011105;28;19918;-87
2023/03/16 10:13:04;;;;;;;;;;;;;;;15.65;nan;100774.19;4996331;28;19918;-87
2023/03/16 10:15:32;;;;;;;;;;;;;;;16.40;nan;100775.16;4998440;28;19956;-86
2023/03/16 10:18:15;;;;;;;;;;;;;;;17.00;nan;100760.78;5004825;28;20292;-87
2023/03/16 10:20:40;;;;;;;;;;;;;;;17.19;nan;100754.81;5010630;28;20302;-87
2023/03/16 10:23:25;;;;;;;;;;;;;;;16.92;nan;100756.38;5008121;28;19917;-87
2023/03/16 10:25:51;;;;;;;;;;;;;;;17.12;nan;100755.78;5005000;28;19923;-87
2023/03/16 10:28:25;;;;;;;;;;;;;;;17.50;nan;100760.88;5008400;28;19971;-87
2023/03/16 10:30:51;;;;;;;;;;;;;;;17.70;nan;100769.09;5004976;28;20395;-86
2023/03/16 10:33:25;;;;;;;;;;;;;;;18.34;nan;100768.97;4990149;28;19917;-85
2023/03/16 10:35:56;;;;;;;;;;;;;;;18.95;nan;100768.25;4989213;28;19922;-87
2023/03/16 10:38:41;;;;;;;;;;;;;;;18.67;nan;100763.78;4989727;28;19929;-87
2023/03/16 10:41:33;;;;;;;;;;;;;;;18.12;nan;100757.50;4988837;28;19918;-87
2023/03/16 10:44:06;;;;;;;;;;;;;;;18.09;nan;100767.75;4991652;28;20008;-86
2023/03/16 10:46:35;;;;;;;;;;;;;;;18.57;nan;100759.84;4992581;28;19917;-87
2023/03/16 10:49:00;;;;;;;;;;;;;;;19.04;nan;100750.97;4991723;28;19965;-89
2023/03/16 10:51:33;;;;;;;;;;;;;;;19.01;nan;100755.91;5000448;28;19940;-89
2023/03/16 10:54:15;;;;;;;;;;;;;;;19.54;nan;100756.00;5001578;28;19928;-87
2023/03/16 10:56:40;;;;;;;;;;;;;;;20.09;nan;100750.44;4995180;28;20482;-87
2023/03/16 10:59:24;;;;;;;;;;;;;;;20.50;nan;100750.16;5004778;28;20016;-88
2023/03/16 11:01:49;;;;;;;;;;;;;;;20.55;nan;100738.75;4992230;28;19922;-87
2023/03/16 11:04:16;;;;;;;;;;;;;;;20.86;nan;100743.41;4997175;28;19922;-87
2023/03/16 11:06:51;;;;;;;;;;;;;;;21.07;nan;100738.72;5000349;28;20674;-88
2023/03/16 11:09:24;;;;;;;;;;;;;;;20.77;nan;100729.38;4996378;28;20235;-87
2023/03/16 11:11:50;;;;;;;;;;;;;;;20.75;nan;100730.63;4985320;28;19925;-89
2023/03/16 11:14:19;;;;;;;;;;;;;;;21.06;nan;100737.09;4993365;28;19921;-87
2023/03/16 11:16:46;;;;;;;;;;;;;;;20.64;nan;100723.25;5008947;28;19922;-88
2023/03/16 11:19:19;;;;;;;;;;;;;;;20.46;nan;100727.41;5008218;28;19925;-89
2023/03/16 11:21:54;;;;;;;;;;;;;;;21.24;nan;100721.06;5011189;28;20233;-87
2023/03/16 11:24:21;;;;;;;;;;;;;;;21.42;nan;100723.03;5012196;28;19944;-87
2023/03/16 11:26:53;;;;;;;;;;;;;;;21.36;nan;100721.19;5002528;28;19928;-88
2023/03/16 11:29:21;;;;;;;;;;;;;;;21.63;nan;100717.25;4985165;28;20011;-88
2023/03/16 11:31:52;;;;;;;;;;;;;;;21.59;nan;100715.22;5001128;28;20202;-87
2023/03/16 11:34:21;;;;;;;;;;;;;;;21.67;nan;100711.47;4999290;28;19929;-88
2023/03/16 11:36:49;;;;;;;;;;;;;;;21.81;nan;100703.03;4969159;28;19929;-87
2023/03/16 11:39:26;;;;;;;;;;;;;;;20.88;nan;100697.47;4969696;28;19969;-87
2023/03/16 11:42:11;;;;;;;;;;;;;;;20.17;nan;100698.41;4984601;28;20028;-86
2023/03/16 11:44:37;;;;;;;;;;;;;;;19.61;nan;100700.50;4970006;28;19965;-87
2023/03/16 11:47:02;;;;;;;;;;;;;;;18.80;nan;100708.63;4970737;28;20369;-87
2023/03/16 11:49:44;;;;;;;;;;;;;;;17.64;nan;100703.84;4990128;28;19922;-88
2023/03/16 11:52:31;;;;;;;;;;;;;;;17.45;nan;100697.31;4996602;28;20395;-88
2023/03/16 11:55:04;;;;;;;;;;;;;;;17.56;nan;100695.94;5000063;28;19926;-89
2023/03/16 11:57:48;;;;;;;;;;;;;;;17.59;nan;100695.53;5000900;28;19925;-87
2023/03/16 12:00:25;;;;;;;;;;;;;;;17.04;nan;100691.75;4996643;28;19941;-87
2023/03/16 12:03:09;;;;;;;;;;;;;;;17.10;nan;100681.16;5009722;28;19918;-87
2023/03/16 12:05:55;;;;;;;;;;;;;;;17.06;nan;100679.88;4983758;28;19991;-87
2023/03/16 12:08:30;;;;;;;;;;;;;;;16.87;nan;100675.16;5011495;28;19918;-86
2023/03/16 12:10:59;;;;;;;;;;;;;;;16.70;nan;100672.69;4995778;28;19937;-87
2023/03/16 12:13:56;;;;;;;;;;;;;;;16.44;nan;100667.03;4978374;28;19925;-87
2023/03/16 12:16:34;;;;;;;;;;;;;;;16.37;nan;100666.13;4971678;28;19972;-88
2023/03/16 12:19:01;;;;;;;;;;;;;;;16.25;nan;100663.91;4976492;28;20300;-88
2023/03/16 12:21:36;;;;;;;;;;;;;;;15.86;nan;100651.72;4991691;28;19924;-89
2023/03/16 12:24:03;;;;;;;;;;;;;;;15.80;nan;100656.94;5004613;28;19918;-91
2023/03/16 12:26:31;;;;;;;;;;;;;;;15.69;nan;100648.34;5010159;28;19922;-87
2023/03/16 12:28:58;;;;;;;;;;;;;;;15.92;nan;100647.47;5002973;28;20234;-87
2023/03/16 12:31:41;;;;;;;;;;;;;;;15.95;nan;100641.78;4993470;28;19984;-88
2023/03/16 12:34:25;;;;;;;;;;;;;;;15.81;nan;100637.28;5000053;28;19964;-88
2023/03/16 12:36:56;;;;;;;;;;;;;;;15.47;nan;100635.94;4997372;28;20028;-87
2023/03/16 12:39:40;;;;;;;;;;;;;;;15.20;nan;100632.00;4988045;28;20395;-88
2023/03/16 12:42:14;;;;;;;;;;;;;;;14.82;nan;100639.91;5008950;28;20417;-87
2023/03/16 12:44:47;;;;;;;;;;;;;;;14.59;nan;100630.09;5000126;28;20392;-87
2023/03/16 12:47:32;;;;;;;;;;;;;;;14.48;nan;100633.13;4997360;28;19926;-87
2023/03/16 12:50:08;;;;;;;;;;;;;;;14.14;nan;100628.97;5007387;28;19917;-87
2023/03/16 12:52:46;;;;;;;;;;;;;;;13.83;nan;100626.25;4990266;28;19922;-87
2023/03/16 12:55:16;;;;;;;;;;;;;;;13.66;nan;100627.25;5007321;28;19929;-87
2023/03/16 12:57:43;;;;;;;;;;;;;;;13.62;nan;100628.63;4999919;28;19929;-87
2023/03/16 13:00:11;;;;;;;;;;;;;;;13.60;nan;100618.97;5023557;28;19925;-87
2023/03/16 13:02:37;;;;;;;;;;;;;;;13.49;nan;100619.34;5015479;28;19921;-87
2023/03/16 13:05:09;;;;;;;;;;;;;;;13.37;nan;100612.69;5011471;28;20598;-87
2023/03/16 13:07:35;;;;;;;;;;;;;;;13.38;nan;100611.72;5005554;28;19933;-87